Terminal Aerodrome Forecast
Issued by NWS

Current Version | Previous Version | Graphics & Text | Print | Product List | Glossary On
Versions: 1 2 3 4 5 6 7 8 9 10 11 12 13 14 15 16 17 18 19 20
995
FTUS41 KPBZ 152320
TAFMGW
TAF
KMGW 152320Z 1600/1624 11003KT P6SM BKN100
     FM160900 12003KT P6SM VCSH BKN080
     FM161500 00000KT P6SM OVC025=

USA.gov is the U.S. government's official web portal to all federal, state and local government web resources and services.